Time;durP1;ratioP1;P1;durP2;ratioP2;P2;SDS_P1;SDS_P2;PMS_P1;PMS_P2;Temp;Humidity;BMP_temperature;BMP_pressure;BME280_temperature;BME280_humidity;BME280_pressure;Samples;Min_cycle;Max_cycle;Signal;HPM_P1;HPM_P2
2022/12/28 00:00:52;;;;;;;;;;;7.50;97.80;;;;;;5089565;28;19999;-79
2022/12/28 00:03:17;;;;;;;;;;;7.40;97.80;;;;;;5091024;28;19931;-79
2022/12/28 00:05:43;;;;;;;;;;;7.50;97.80;;;;;;5072441;28;19917;-79
2022/12/28 00:08:08;;;;;;;;;;;7.40;97.80;;;;;;5089354;28;20484;-80
2022/12/28 00:10:34;;;;;;;;;;;7.50;97.80;;;;;;5072812;28;19912;-80
2022/12/28 00:13:00;;;;;;;;;;;7.40;97.80;;;;;;5090974;28;20269;-76
2022/12/28 00:15:25;;;;;;;;;;;7.40;97.80;;;;;;5072529;28;19959;-80
2022/12/28 00:17:51;;;;;;;;;;;7.40;97.80;;;;;;5072918;28;20299;-79
2022/12/28 00:20:16;;;;;;;;;;;7.40;97.80;;;;;;5089579;28;20019;-79
2022/12/28 00:22:42;;;;;;;;;;;7.40;97.80;;;;;;5090787;28;19912;-79
2022/12/28 00:25:08;;;;;;;;;;;7.40;97.80;;;;;;5088429;28;20289;-79
2022/12/28 00:27:33;;;;;;;;;;;7.40;97.80;;;;;;5090342;28;19912;-79
2022/12/28 00:29:59;;;;;;;;;;;7.40;97.80;;;;;;5089305;28;20398;-79
2022/12/28 00:32:24;;;;;;;;;;;7.40;97.80;;;;;;5072114;28;20007;-78
2022/12/28 00:34:50;;;;;;;;;;;7.40;97.80;;;;;;5072196;28;19916;-80
2022/12/28 00:37:16;;;;;;;;;;;7.30;97.70;;;;;;5072337;28;19912;-79
2022/12/28 00:39:41;;;;;;;;;;;7.30;97.70;;;;;;5089047;28;19963;-79
2022/12/28 00:42:07;;;;;;;;;;;7.30;97.70;;;;;;5088820;28;19920;-79
2022/12/28 00:44:32;;;;;;;;;;;7.30;97.70;;;;;;5088971;28;19923;-79
2022/12/28 00:46:58;;;;;;;;;;;7.20;97.70;;;;;;5090533;28;19963;-79
2022/12/28 00:49:23;;;;;;;;;;;7.20;97.70;;;;;;5089066;28;19913;-79
2022/12/28 00:51:49;;;;;;;;;;;7.20;97.70;;;;;;5090145;28;19916;-79
2022/12/28 00:54:15;;;;;;;;;;;7.10;97.70;;;;;;5088886;28;19912;-79
2022/12/28 00:56:41;;;;;;;;;;;7.10;97.70;;;;;;5088760;28;20045;-80
2022/12/28 00:59:07;;;;;;;;;;;7.10;97.70;;;;;;5072016;28;20013;-80
2022/12/28 01:01:33;;;;;;;;;;;7.00;97.60;;;;;;5088392;28;19984;-79
2022/12/28 01:03:59;;;;;;;;;;;7.00;97.60;;;;;;5090023;28;19969;-79
2022/12/28 01:06:25;;;;;;;;;;;7.00;97.70;;;;;;5089856;28;19919;-79
2022/12/28 01:08:51;;;;;;;;;;;7.00;97.70;;;;;;5089668;28;20022;-79
2022/12/28 01:11:16;;;;;;;;;;;7.00;97.70;;;;;;5089980;28;20002;-79
2022/12/28 01:13:42;;;;;;;;;;;6.90;97.70;;;;;;5089961;28;19932;-80
2022/12/28 01:16:11;;;;;;;;;;;6.90;97.70;;;;;;5088884;28;20016;-80
2022/12/28 01:18:37;;;;;;;;;;;6.90;97.70;;;;;;5071738;28;19916;-80
2022/12/28 01:21:29;;;;;;;;;;;6.90;97.70;;;;;;5089875;28;19915;-79
2022/12/28 01:23:56;;;;;;;;;;;6.90;97.70;;;;;;5086779;28;19955;-80
2022/12/28 01:26:21;;;;;;;;;;;6.90;97.60;;;;;;5088349;28;19923;-80
2022/12/28 01:28:47;;;;;;;;;;;6.90;97.60;;;;;;5089849;28;20007;-79
2022/12/28 01:31:14;;;;;;;;;;;6.90;97.60;;;;;;5088396;28;20009;-79
2022/12/28 01:33:40;;;;;;;;;;;6.80;97.60;;;;;;5088567;28;19912;-80
2022/12/28 01:36:10;;;;;;;;;;;6.80;97.60;;;;;;5089582;28;19916;-80
2022/12/28 01:38:36;;;;;;;;;;;6.80;97.60;;;;;;5089884;28;20011;-79
2022/12/28 01:41:01;;;;;;;;;;;6.80;97.60;;;;;;5088192;28;20029;-80
2022/12/28 01:43:57;;;;;;;;;;;6.80;97.60;;;;;;5088192;28;19909;-79
2022/12/28 01:46:40;;;;;;;;;;;6.80;97.60;;;;;;5052448;28;20406;-79
2022/12/28 01:49:15;;;;;;;;;;;6.70;97.60;;;;;;5088091;28;19966;-79
2022/12/28 01:52:00;;;;;;;;;;;6.80;97.70;;;;;;5087688;28;19994;-79
2022/12/28 01:54:28;;;;;;;;;;;6.80;97.70;;;;;;5087304;28;19935;-80
2022/12/28 01:56:54;;;;;;;;;;;6.80;97.80;;;;;;5089062;28;19908;-80
2022/12/28 01:59:21;;;;;;;;;;;6.80;97.80;;;;;;5087532;28;19942;-71
2022/12/28 02:01:46;;;;;;;;;;;6.90;97.80;;;;;;5088810;28;19921;-80
2022/12/28 02:04:12;;;;;;;;;;;6.90;97.70;;;;;;5087760;28;20508;-79
2022/12/28 02:06:38;;;;;;;;;;;6.90;97.70;;;;;;5070758;28;19916;-80
2022/12/28 02:09:10;;;;;;;;;;;6.90;97.70;;;;;;5087746;28;19922;-79
2022/12/28 02:11:36;;;;;;;;;;;7.00;97.70;;;;;;5087630;28;19914;-79
2022/12/28 02:14:03;;;;;;;;;;;7.00;97.60;;;;;;5087606;28;20163;-79
2022/12/28 02:16:29;;;;;;;;;;;7.00;97.60;;;;;;5087521;28;20002;-79
2022/12/28 02:18:54;;;;;;;;;;;7.00;97.60;;;;;;5087229;28;20011;-79
2022/12/28 02:21:37;;;;;;;;;;;7.00;97.60;;;;;;5087442;28;19916;-79
2022/12/28 02:24:29;;;;;;;;;;;7.00;97.60;;;;;;5087051;28;19952;-79
2022/12/28 02:27:09;;;;;;;;;;;7.00;97.60;;;;;;5079706;28;19912;-79
2022/12/28 02:29:41;;;;;;;;;;;7.00;97.60;;;;;;5087211;28;20376;-79
2022/12/28 02:32:09;;;;;;;;;;;7.00;97.60;;;;;;5088466;28;20038;-79
2022/12/28 02:34:35;;;;;;;;;;;7.00;97.80;;;;;;5087026;28;19920;-79
2022/12/28 02:37:06;;;;;;;;;;;7.00;97.60;;;;;;5086935;28;19994;-79
2022/12/28 02:39:51;;;;;;;;;;;7.00;97.60;;;;;;5088418;28;19951;-79
2022/12/28 02:42:18;;;;;;;;;;;7.00;97.60;;;;;;5087056;28;19912;-79
2022/12/28 02:50:14;;;;;;;;;;;7.10;97.70;;;;;;5087890;28;20049;-80
2022/12/28 02:53:05;;;;;;;;;;;7.10;97.70;;;;;;5089576;28;19919;-80
2022/12/28 02:58:34;;;;;;;;;;;7.10;97.60;;;;;;5088542;28;19915;-80
2022/12/28 03:00:59;;;;;;;;;;;7.10;97.70;;;;;;5087030;28;19918;-79
2022/12/28 03:03:43;;;;;;;;;;;7.20;97.70;;;;;;5086981;28;19908;-79
2022/12/28 03:09:12;;;;;;;;;;;7.20;97.60;;;;;;5088601;28;19914;-79
2022/12/28 03:11:59;;;;;;;;;;;7.20;97.60;;;;;;5087309;28;19953;-79
2022/12/28 03:14:31;;;;;;;;;;;7.20;97.60;;;;;;5086828;28;19912;-80
2022/12/28 03:33:31;;;;;;;;;;;7.20;97.60;;;;;;5088424;28;20272;-79
2022/12/28 03:36:01;;;;;;;;;;;7.10;97.50;;;;;;5086988;28;19916;-79
2022/12/28 03:38:40;;;;;;;;;;;7.20;97.60;;;;;;5088144;28;19951;-79
2022/12/28 03:41:12;;;;;;;;;;;7.20;97.60;;;;;;5086586;28;19914;-79
2022/12/28 03:43:42;;;;;;;;;;;7.20;97.50;;;;;;5087961;28;19908;-79
2022/12/28 03:46:10;;;;;;;;;;;7.20;97.50;;;;;;5087890;28;19912;-79
2022/12/28 03:48:36;;;;;;;;;;;7.20;97.50;;;;;;5086450;28;19962;-80
2022/12/28 03:51:02;;;;;;;;;;;7.20;97.50;;;;;;5069638;28;20385;-80
2022/12/28 03:53:35;;;;;;;;;;;7.20;97.40;;;;;;5086961;28;20297;-79
2022/12/28 03:56:08;;;;;;;;;;;7.10;97.40;;;;;;5086340;28;20265;-80
2022/12/28 03:58:33;;;;;;;;;;;7.10;97.40;;;;;;5086261;28;19908;-79
2022/12/28 04:00:59;;;;;;;;;;;7.10;97.30;;;;;;5087334;28;20284;-79
2022/12/28 04:03:24;;;;;;;;;;;7.00;97.20;;;;;;5089841;28;20006;-79
2022/12/28 04:05:50;;;;;;;;;;;7.00;97.20;;;;;;5090119;28;19923;-79
2022/12/28 04:08:15;;;;;;;;;;;6.90;97.20;;;;;;5090007;28;19934;-80
2022/12/28 04:10:41;;;;;;;;;;;6.90;97.20;;;;;;5073254;28;20375;-80
2022/12/28 04:13:06;;;;;;;;;;;6.90;97.30;;;;;;5072957;28;20357;-79
2022/12/28 04:15:32;;;;;;;;;;;6.90;97.20;;;;;;5089976;28;19940;-79
2022/12/28 04:17:59;;;;;;;;;;;6.80;97.20;;;;;;5089767;28;19912;-79
2022/12/28 04:20:24;;;;;;;;;;;6.80;97.20;;;;;;5089576;28;19918;-79
2022/12/28 04:22:50;;;;;;;;;;;6.70;97.10;;;;;;5089664;28;20194;-79
2022/12/28 04:25:15;;;;;;;;;;;6.60;97.10;;;;;;5091039;28;19928;-79
2022/12/28 04:27:41;;;;;;;;;;;6.60;97.10;;;;;;5089538;28;19912;-80
2022/12/28 04:30:07;;;;;;;;;;;6.40;97.10;;;;;;5089694;28;19912;-79
2022/12/28 04:32:32;;;;;;;;;;;6.40;97.20;;;;;;5092908;28;20060;-79
2022/12/28 04:34:58;;;;;;;;;;;6.30;97.20;;;;;;5072652;28;19954;-79
2022/12/28 04:37:24;;;;;;;;;;;6.30;97.20;;;;;;5089541;28;19969;-79
2022/12/28 04:39:49;;;;;;;;;;;6.20;97.20;;;;;;5090874;28;19950;-80
2022/12/28 04:42:15;;;;;;;;;;;6.10;97.20;;;;;;5072275;28;20365;-79
2022/12/28 04:44:40;;;;;;;;;;;6.00;97.20;;;;;;5089321;28;20019;-78
2022/12/28 04:47:06;;;;;;;;;;;5.90;97.30;;;;;;5072188;28;19923;-78
2022/12/28 04:49:31;;;;;;;;;;;5.90;97.30;;;;;;5072509;28;19913;-78
2022/12/28 04:51:57;;;;;;;;;;;5.90;97.40;;;;;;5088978;28;19912;-78
2022/12/28 04:54:22;;;;;;;;;;;6.00;97.50;;;;;;5088983;28;19920;-78
2022/12/28 04:56:48;;;;;;;;;;;6.10;97.60;;;;;;5089104;28;19927;-78
2022/12/28 04:59:13;;;;;;;;;;;6.20;97.60;;;;;;5088979;28;20325;-79
2022/12/28 05:01:39;;;;;;;;;;;6.30;97.50;;;;;;5088609;28;19912;-78
2022/12/28 05:04:05;;;;;;;;;;;6.30;97.50;;;;;;5090109;28;19922;-78
2022/12/28 05:06:30;;;;;;;;;;;6.40;97.50;;;;;;5089978;28;20015;-78
2022/12/28 05:08:56;;;;;;;;;;;6.40;97.50;;;;;;5071908;28;19912;-78
2022/12/28 05:11:23;;;;;;;;;;;6.40;97.50;;;;;;5088146;28;19915;-79
2022/12/28 05:13:49;;;;;;;;;;;6.50;97.50;;;;;;5089956;28;19912;-78
2022/12/28 05:16:16;;;;;;;;;;;6.50;97.50;;;;;;5088559;28;19908;-78
2022/12/28 05:18:41;;;;;;;;;;;6.60;97.50;;;;;;5089875;28;19984;-77
2022/12/28 05:21:07;;;;;;;;;;;6.60;97.50;;;;;;5071561;28;19912;-77
2022/12/28 05:23:34;;;;;;;;;;;6.60;97.60;;;;;;5089720;28;19904;-78
2022/12/28 05:26:00;;;;;;;;;;;6.60;97.60;;;;;;5088408;28;19978;-78
2022/12/28 05:28:25;;;;;;;;;;;6.70;97.60;;;;;;5071580;28;19920;-78
2022/12/28 05:30:51;;;;;;;;;;;6.80;97.60;;;;;;5088234;28;20360;-78
2022/12/28 05:33:17;;;;;;;;;;;6.90;97.70;;;;;;5089391;28;19908;-78
2022/12/28 05:35:43;;;;;;;;;;;7.00;97.60;;;;;;5089584;28;19934;-78
2022/12/28 05:38:08;;;;;;;;;;;7.00;97.60;;;;;;5089762;28;19955;-78
2022/12/28 05:40:34;;;;;;;;;;;7.10;97.60;;;;;;5088457;28;19912;-78
2022/12/28 05:43:00;;;;;;;;;;;7.20;97.50;;;;;;5087877;28;19912;-79
2022/12/28 05:45:25;;;;;;;;;;;7.20;97.50;;;;;;5070989;28;19969;-78
2022/12/28 05:47:53;;;;;;;;;;;7.20;97.50;;;;;;5070953;28;19918;-78
2022/12/28 05:50:18;;;;;;;;;;;7.30;97.50;;;;;;5087953;28;19912;-79
2022/12/28 05:52:44;;;;;;;;;;;7.30;97.50;;;;;;5087751;28;20290;-79
2022/12/28 05:55:10;;;;;;;;;;;7.30;97.40;;;;;;5070718;28;19912;-80
2022/12/28 05:57:35;;;;;;;;;;;7.40;97.40;;;;;;5070748;28;20030;-80
2022/12/28 06:00:01;;;;;;;;;;;7.30;97.40;;;;;;5070727;28;19933;-80
2022/12/28 06:02:27;;;;;;;;;;;7.30;97.50;;;;;;5087533;28;19908;-80
2022/12/28 06:04:53;;;;;;;;;;;7.30;97.50;;;;;;5070590;28;19916;-80
2022/12/28 06:07:18;;;;;;;;;;;7.30;97.70;;;;;;5087523;28;19912;-80
2022/12/28 06:09:44;;;;;;;;;;;7.20;97.50;;;;;;5072038;28;19916;-79
2022/12/28 06:12:09;;;;;;;;;;;7.20;97.60;;;;;;5070996;28;20014;-80
2022/12/28 06:14:35;;;;;;;;;;;7.20;97.60;;;;;;5070881;28;19912;-80
2022/12/28 06:17:00;;;;;;;;;;;7.10;97.60;;;;;;5070972;28;20014;-80
2022/12/28 06:19:26;;;;;;;;;;;7.10;97.60;;;;;;5087981;28;20002;-79
2022/12/28 06:21:52;;;;;;;;;;;7.00;97.60;;;;;;5070706;28;19916;-79
2022/12/28 06:24:17;;;;;;;;;;;7.00;97.70;;;;;;5088094;28;19931;-79
2022/12/28 06:26:43;;;;;;;;;;;6.90;97.70;;;;;;5087442;28;19912;-79
2022/12/28 06:29:09;;;;;;;;;;;6.90;97.80;;;;;;5087443;28;19916;-79
2022/12/28 06:31:36;;;;;;;;;;;6.90;97.80;;;;;;5088513;28;19908;-78
2022/12/28 06:34:02;;;;;;;;;;;6.80;97.80;;;;;;5088538;28;20360;-79
2022/12/28 06:36:29;;;;;;;;;;;6.80;97.80;;;;;;5087135;28;19908;-79
2022/12/28 06:38:55;;;;;;;;;;;6.80;97.90;;;;;;5086960;28;19928;-79
2022/12/28 06:41:21;;;;;;;;;;;6.90;97.80;;;;;;5086901;28;19913;-80
2022/12/28 06:43:47;;;;;;;;;;;6.90;97.80;;;;;;5087090;28;19915;-79
2022/12/28 06:46:14;;;;;;;;;;;6.90;97.80;;;;;;5086955;28;20392;-80
2022/12/28 06:48:40;;;;;;;;;;;6.80;97.80;;;;;;5088239;28;19909;-80
2022/12/28 06:51:07;;;;;;;;;;;6.80;97.80;;;;;;5070164;28;20261;-80
2022/12/28 06:53:36;;;;;;;;;;;6.80;98.00;;;;;;5086952;28;19912;-80
2022/12/28 06:56:05;;;;;;;;;;;6.80;97.80;;;;;;5086787;28;19908;-80
2022/12/28 06:58:31;;;;;;;;;;;6.70;97.80;;;;;;5088753;28;19934;-80
2022/12/28 07:01:03;;;;;;;;;;;6.70;97.90;;;;;;5086739;28;19912;-80
2022/12/28 07:03:29;;;;;;;;;;;6.70;97.90;;;;;;5086895;28;20292;-79
2022/12/28 07:05:58;;;;;;;;;;;6.80;97.90;;;;;;5070077;28;19917;-80
2022/12/28 07:08:23;;;;;;;;;;;6.80;97.90;;;;;;5088025;28;20006;-80
2022/12/28 07:10:49;;;;;;;;;;;6.80;97.90;;;;;;5087979;28;20054;-79
2022/12/28 07:13:14;;;;;;;;;;;6.80;97.90;;;;;;5070162;28;19919;-79
2022/12/28 07:15:40;;;;;;;;;;;6.80;97.90;;;;;;5086702;28;20013;-79
2022/12/28 07:18:06;;;;;;;;;;;6.80;97.90;;;;;;5069958;28;20280;-78
2022/12/28 07:20:31;;;;;;;;;;;6.80;97.90;;;;;;5069970;28;20057;-78
2022/12/28 07:22:57;;;;;;;;;;;6.90;97.90;;;;;;5069682;28;19912;-79
2022/12/28 07:25:22;;;;;;;;;;;6.80;97.90;;;;;;5086362;28;20241;-79
2022/12/28 07:27:48;;;;;;;;;;;6.90;97.90;;;;;;5087757;28;19920;-79
2022/12/28 07:30:13;;;;;;;;;;;6.90;97.90;;;;;;5087738;28;19973;-78
2022/12/28 07:32:39;;;;;;;;;;;6.90;97.90;;;;;;5086433;28;19924;-78
2022/12/28 07:35:05;;;;;;;;;;;6.90;98.00;;;;;;5070569;28;19922;-78
2022/12/28 07:37:30;;;;;;;;;;;6.90;98.10;;;;;;5091664;28;19912;-79
2022/12/28 07:39:56;;;;;;;;;;;7.00;98.00;;;;;;5091596;28;20448;-79
2022/12/28 07:42:22;;;;;;;;;;;7.10;98.00;;;;;;5073380;28;20315;-79
2022/12/28 07:44:47;;;;;;;;;;;7.10;98.00;;;;;;5073426;28;19938;-78
2022/12/28 07:47:13;;;;;;;;;;;7.20;98.00;;;;;;5073461;28;20351;-79
2022/12/28 07:49:39;;;;;;;;;;;7.20;98.00;;;;;;5073958;28;20004;-79
2022/12/28 07:52:05;;;;;;;;;;;7.30;98.00;;;;;;5073186;28;19966;-79
2022/12/28 07:54:30;;;;;;;;;;;7.30;98.00;;;;;;5090057;28;19995;-79
2022/12/28 07:56:56;;;;;;;;;;;7.40;98.00;;;;;;5091196;28;19912;-79
2022/12/28 07:59:21;;;;;;;;;;;7.50;98.00;;;;;;5072925;28;19974;-79
2022/12/28 08:01:48;;;;;;;;;;;7.50;98.00;;;;;;5072749;28;19912;-79
2022/12/28 08:04:15;;;;;;;;;;;7.60;98.00;;;;;;5089824;28;19909;-78
2022/12/28 08:06:42;;;;;;;;;;;7.70;98.00;;;;;;5091027;28;20272;-79
2022/12/28 08:09:09;;;;;;;;;;;7.70;98.00;;;;;;5091402;28;19919;-79
2022/12/28 08:11:36;;;;;;;;;;;7.80;97.90;;;;;;5089785;28;19916;-78
2022/12/28 08:14:01;;;;;;;;;;;7.90;97.90;;;;;;5089874;28;19907;-78
2022/12/28 08:16:29;;;;;;;;;;;7.90;97.90;;;;;;5072734;28;19919;-78
2022/12/28 08:18:54;;;;;;;;;;;8.00;97.90;;;;;;5089658;28;20279;-79
2022/12/28 08:21:20;;;;;;;;;;;8.00;97.90;;;;;;5073008;28;19912;-79
2022/12/28 08:23:46;;;;;;;;;;;8.00;97.90;;;;;;5090896;28;19920;-78
2022/12/28 08:26:13;;;;;;;;;;;8.10;97.90;;;;;;5089506;28;19935;-79
2022/12/28 08:28:39;;;;;;;;;;;8.10;97.90;;;;;;5089331;28;19991;-78
2022/12/28 08:31:08;;;;;;;;;;;8.10;97.90;;;;;;5072464;28;19911;-79
2022/12/28 08:33:35;;;;;;;;;;;8.20;97.90;;;;;;5090700;28;19940;-80
2022/12/28 08:36:00;;;;;;;;;;;8.20;97.90;;;;;;5089324;28;19912;-79
2022/12/28 08:38:26;;;;;;;;;;;8.30;97.90;;;;;;5090618;28;19961;-79
2022/12/28 08:40:59;;;;;;;;;;;8.30;97.90;;;;;;5089238;28;20300;-79
2022/12/28 08:43:25;;;;;;;;;;;8.30;98.00;;;;;;5089207;28;19929;-80
2022/12/28 08:45:57;;;;;;;;;;;8.40;98.00;;;;;;5090032;28;19920;-79
2022/12/28 08:48:22;;;;;;;;;;;8.40;97.90;;;;;;5088562;28;20328;-80
2022/12/28 08:50:48;;;;;;;;;;;8.50;97.90;;;;;;5090058;28;19976;-79
2022/12/28 08:53:14;;;;;;;;;;;8.50;97.90;;;;;;5089037;28;19963;-79
2022/12/28 08:55:39;;;;;;;;;;;8.50;97.90;;;;;;5088844;28;19912;-79
2022/12/28 08:58:05;;;;;;;;;;;8.60;97.90;;;;;;5072118;28;20331;-80
2022/12/28 09:00:30;;;;;;;;;;;8.60;97.90;;;;;;5088989;28;19912;-80
2022/12/28 09:02:59;;;;;;;;;;;8.70;97.90;;;;;;5089061;28;19912;-80
2022/12/28 09:05:24;;;;;;;;;;;8.70;97.90;;;;;;5071762;28;20019;-80
2022/12/28 09:07:50;;;;;;;;;;;8.80;97.90;;;;;;5071836;28;20038;-79
2022/12/28 09:10:16;;;;;;;;;;;8.80;97.90;;;;;;5071734;28;19912;-79
2022/12/28 09:12:42;;;;;;;;;;;8.80;97.90;;;;;;5089662;28;20413;-79
2022/12/28 09:15:08;;;;;;;;;;;8.90;97.90;;;;;;5088476;28;19919;-79
2022/12/28 09:17:33;;;;;;;;;;;8.90;97.90;;;;;;5088443;28;19931;-79
2022/12/28 09:19:59;;;;;;;;;;;9.00;97.90;;;;;;5090218;28;20244;-79
2022/12/28 09:22:24;;;;;;;;;;;9.00;97.90;;;;;;5088314;28;20271;-79
2022/12/28 09:24:50;;;;;;;;;;;9.10;98.00;;;;;;5089192;28;19931;-78
2022/12/28 09:27:16;;;;;;;;;;;9.20;98.10;;;;;;5089715;28;20007;-79
2022/12/28 09:29:41;;;;;;;;;;;9.30;98.20;;;;;;5071438;28;20380;-79
2022/12/28 09:32:07;;;;;;;;;;;9.50;98.20;;;;;;5089539;28;19913;-79
2022/12/28 09:34:34;;;;;;;;;;;9.70;98.20;;;;;;5071254;28;20001;-78
2022/12/28 09:37:00;;;;;;;;;;;9.80;98.20;;;;;;5088157;28;19908;-78
2022/12/28 09:39:26;;;;;;;;;;;10.00;98.20;;;;;;5071315;28;19912;-78
2022/12/28 09:41:55;;;;;;;;;;;10.20;98.20;;;;;;5087751;28;20312;-79
2022/12/28 09:44:39;;;;;;;;;;;10.40;98.20;;;;;;5087662;28;20383;-78
2022/12/28 09:47:05;;;;;;;;;;;10.60;98.30;;;;;;5087663;28;19912;-78
2022/12/28 09:49:42;;;;;;;;;;;10.70;98.30;;;;;;5087742;28;19908;-78
2022/12/28 09:52:14;;;;;;;;;;;10.90;98.30;;;;;;5087506;28;20011;-78
2022/12/28 09:54:40;;;;;;;;;;;11.10;98.20;;;;;;5087685;28;19908;-78
2022/12/28 09:57:13;;;;;;;;;;;11.10;98.20;;;;;;5087697;28;19913;-79
2022/12/28 09:59:39;;;;;;;;;;;11.20;98.20;;;;;;5087275;28;20322;-79
2022/12/28 10:02:14;;;;;;;;;;;11.40;98.30;;;;;;5088751;28;19912;-79
2022/12/28 10:04:40;;;;;;;;;;;11.50;98.40;;;;;;5087686;28;20352;-78
2022/12/28 10:07:08;;;;;;;;;;;11.70;98.40;;;;;;5087428;28;19994;-79
2022/12/28 10:09:34;;;;;;;;;;;12.00;98.50;;;;;;5088354;28;19962;-79
2022/12/28 10:12:09;;;;;;;;;;;12.20;98.50;;;;;;5086993;28;19951;-80
2022/12/28 10:14:35;;;;;;;;;;;12.30;98.40;;;;;;5087118;28;19908;-78
2022/12/28 10:17:01;;;;;;;;;;;12.30;98.10;;;;;;5087233;28;19916;-78
2022/12/28 10:19:27;;;;;;;;;;;12.20;98.10;;;;;;5088331;28;20277;-73
2022/12/28 10:22:06;;;;;;;;;;;12.10;98.10;;;;;;5087894;28;19919;-79
2022/12/28 10:24:32;;;;;;;;;;;12.00;98.20;;;;;;5086430;28;20042;-79
2022/12/28 10:26:58;;;;;;;;;;;12.00;98.30;;;;;;5069888;28;19920;-79
2022/12/28 10:29:27;;;;;;;;;;;12.00;98.30;;;;;;5086156;28;20994;-79
2022/12/28 10:31:59;;;;;;;;;;;11.90;98.30;;;;;;5087947;28;19926;-79
2022/12/28 10:34:25;;;;;;;;;;;12.00;98.30;;;;;;5087960;28;19939;-79
2022/12/28 10:36:52;;;;;;;;;;;11.90;98.30;;;;;;5087853;28;20012;-79
2022/12/28 10:39:27;;;;;;;;;;;11.90;98.40;;;;;;5069988;28;19923;-79
2022/12/28 10:41:53;;;;;;;;;;;11.90;98.40;;;;;;5086574;28;19916;-79
2022/12/28 10:44:33;;;;;;;;;;;11.90;98.40;;;;;;5087808;28;19955;-79
2022/12/28 10:47:00;;;;;;;;;;;12.00;98.50;;;;;;5086666;28;20330;-78
2022/12/28 10:49:27;;;;;;;;;;;12.10;98.60;;;;;;5086309;28;19908;-79
2022/12/28 10:52:03;;;;;;;;;;;12.10;98.50;;;;;;5086812;28;19919;-79
2022/12/28 10:54:34;;;;;;;;;;;12.30;98.60;;;;;;5086295;28;19919;-79
2022/12/28 10:57:00;;;;;;;;;;;12.30;98.50;;;;;;5086353;28;19908;-78
2022/12/28 10:59:27;;;;;;;;;;;12.40;98.50;;;;;;5087215;28;20273;-78
2022/12/28 11:01:55;;;;;;;;;;;12.50;98.50;;;;;;5086894;28;19995;-79
2022/12/28 11:04:25;;;;;;;;;;;12.50;98.50;;;;;;5087793;28;19926;-79
2022/12/28 11:06:50;;;;;;;;;;;12.50;98.50;;;;;;5086796;28;19958;-79
2022/12/28 11:09:19;;;;;;;;;;;12.60;98.50;;;;;;5091783;28;20338;-79
2022/12/28 11:11:46;;;;;;;;;;;12.60;98.50;;;;;;5092634;28;19912;-80
2022/12/28 11:14:14;;;;;;;;;;;12.70;98.50;;;;;;5091615;28;19984;-79
2022/12/28 11:16:40;;;;;;;;;;;12.60;98.60;;;;;;5090611;28;20253;-80
2022/12/28 11:19:06;;;;;;;;;;;12.60;98.30;;;;;;5091796;28;19919;-80
2022/12/28 11:21:32;;;;;;;;;;;12.50;98.30;;;;;;5092490;28;19913;-79
2022/12/28 11:23:58;;;;;;;;;;;12.40;98.40;;;;;;5092163;28;19916;-78
2022/12/28 11:26:25;;;;;;;;;;;12.40;98.40;;;;;;5093163;28;19927;-79
2022/12/28 11:28:52;;;;;;;;;;;12.40;98.40;;;;;;5093558;28;19908;-78
2022/12/28 11:31:21;;;;;;;;;;;12.40;98.40;;;;;;5092298;28;20372;-77
2022/12/28 11:33:51;;;;;;;;;;;12.30;98.40;;;;;;5092809;28;19907;-81
2022/12/28 11:36:21;;;;;;;;;;;12.30;98.40;;;;;;5093183;28;19915;-80
2022/12/28 11:38:48;;;;;;;;;;;12.30;98.70;;;;;;5092067;28;20248;-78
2022/12/28 11:41:22;;;;;;;;;;;12.50;98.60;;;;;;5093324;28;19908;-82
2022/12/28 11:43:52;;;;;;;;;;;12.50;98.60;;;;;;5093760;28;19908;-80
2022/12/28 11:46:20;;;;;;;;;;;12.60;98.60;;;;;;5096341;28;19916;-83
2022/12/28 11:48:49;;;;;;;;;;;12.60;98.50;;;;;;5097383;28;19969;-82
2022/12/28 11:51:14;;;;;;;;;;;12.60;98.40;;;;;;5093126;28;19966;-81
2022/12/28 11:55:58;;;;;;;144.00;137.70;;;12.50;98.30;;;;;;5070573;28;20776;-79
2022/12/28 11:58:30;;;;;;;146.55;140.15;;;12.50;98.50;;;;;;5070198;28;20028;-80
2022/12/28 12:00:58;;;;;;;145.02;138.65;;;12.40;98.60;;;;;;5067016;28;20028;-79
2022/12/28 12:03:55;;;;;;;143.82;137.52;;;12.40;98.60;;;;;;5068598;28;20032;-79
2022/12/28 12:06:44;;;;;;;138.90;132.80;;;12.40;98.70;;;;;;5071111;28;20155;-83
2022/12/28 12:09:29;;;;;;;143.57;137.27;;;12.50;98.70;;;;;;5069502;28;20029;-80
2022/12/28 12:12:16;;;;;;;137.35;131.25;;;12.50;98.60;;;;;;5069397;28;20024;-84
2022/12/28 12:14:55;;;;;;;140.88;134.77;;;12.50;98.80;;;;;;5044867;28;20047;-81
2022/12/28 12:17:35;;;;;;;139.82;133.73;;;12.50;98.60;;;;;;5070072;28;20047;-84
2022/12/28 12:20:21;;;;;;;132.52;126.72;;;12.50;98.90;;;;;;5069925;28;20051;-83
2022/12/28 12:23:04;;;;;;;129.95;124.25;;;12.60;98.80;;;;;;5070288;28;20110;-83
2022/12/28 12:25:43;;;;;;;123.72;118.32;;;12.70;98.80;;;;;;5068707;28;20427;-82
2022/12/28 12:28:20;;;;;;;124.65;119.25;;;12.70;98.70;;;;;;5070039;28;20024;-81
2022/12/28 12:30:46;;;;;;;120.50;115.38;;;12.70;98.60;;;;;;5068956;28;20029;-81
2022/12/28 12:33:14;;;;;;;;;;;12.70;98.50;;;;;;5070661;28;20021;-80
2022/12/28 12:36:01;;;;;;;116.32;111.32;;;12.60;98.60;;;;;;5068052;28;19952;-76
2022/12/28 12:38:39;;;;;;;106.80;102.28;;;12.60;98.50;;;;;;5069207;28;20027;-82
2022/12/28 12:41:11;;;;;;;91.95;88.10;;;12.60;98.60;;;;;;5069309;28;20029;-80
2022/12/28 12:44:18;;;;;;;94.18;90.38;;;12.60;98.60;;;;;;5069017;28;20035;-79
2022/12/28 12:47:09;;;;;;;78.90;75.70;;;12.60;98.60;;;;;;5062744;28;20071;-79
2022/12/28 12:49:55;;;;;;;74.63;71.63;;;12.50;98.60;;;;;;5073803;28;20048;-83
2022/12/28 12:52:41;;;;;;;72.03;69.13;;;12.50;98.60;;;;;;5065663;28;20067;-81
2022/12/28 12:55:36;;;;;;;72.85;69.95;;;12.40;98.60;;;;;;5069694;28;20040;-81
2022/12/28 12:58:30;;;;;;;72.80;69.90;;;12.30;98.60;;;;;;5067789;28;20037;-81
2022/12/28 13:01:16;;;;;;;74.82;71.82;;;12.30;98.60;;;;;;5067904;28;20049;-81
2022/12/28 13:03:48;;;;;;;62.45;59.95;;;12.20;98.60;;;;;;5068689;28;20044;-80
2022/12/28 13:06:23;;;;;;;67.72;65.03;;;12.20;98.60;;;;;;5059538;28;20056;-82
2022/12/28 13:08:59;;;;;;;56.58;54.38;;;12.20;98.60;;;;;;5056120;28;20024;-81
2022/12/28 13:11:27;;;;;;;51.80;49.80;;;12.20;98.60;;;;;;5054808;28;20021;-82
2022/12/28 13:13:53;;;;;;;51.97;49.97;;;12.20;98.60;;;;;;5050749;28;20451;-81
2022/12/28 13:16:22;;;;;;;51.03;49.03;;;12.20;98.60;;;;;;5045498;28;20113;-83
2022/12/28 13:19:04;;;;;;;49.70;47.80;;;12.20;98.60;;;;;;5050630;28;20025;-82
2022/12/28 13:21:45;;;;;;;49.15;47.25;;;12.20;98.60;;;;;;5054052;28;20082;-80
2022/12/28 13:24:30;;;;;;;46.50;44.70;;;12.20;98.50;;;;;;5052488;28;20142;-80
2022/12/28 13:26:58;;;;;;;48.53;46.63;;;12.10;98.40;;;;;;5051039;28;20065;-80
2022/12/28 13:29:37;;;;;;;51.15;49.15;;;12.00;98.40;;;;;;5050523;28;20110;-80
2022/12/28 13:32:03;;;;;;;48.67;46.78;;;12.00;98.50;;;;;;5049605;28;20521;-80
2022/12/28 13:34:34;;;;;;;50.13;48.15;;;11.90;98.50;;;;;;5050308;28;20119;-81
2022/12/28 13:37:02;;;;;;;52.50;50.50;;;11.90;98.50;;;;;;5051652;28;20029;-80
2022/12/28 13:39:32;;;;;;;50.75;48.75;;;11.80;98.50;;;;;;5049748;28;20056;-80
2022/12/28 13:42:03;;;;;;;51.30;49.30;;;11.70;98.40;;;;;;5049765;28;20056;-80
2022/12/28 13:44:43;;;;;;;49.22;47.33;;;11.60;98.40;;;;;;5049969;28;20033;-80
2022/12/28 13:47:11;;;;;;;48.05;46.25;;;11.50;98.50;;;;;;5050376;28;20029;-80
2022/12/28 13:49:44;;;;;;;44.47;42.78;;;11.50;98.50;;;;;;5051390;28;20031;-79
2022/12/28 13:52:15;;;;;;;46.40;44.60;;;11.40;98.50;;;;;;5049629;28;20095;-76
2022/12/28 13:54:45;;;;;;;41.95;40.35;;;11.30;98.60;;;;;;5050879;28;20120;-80
2022/12/28 13:57:14;;;;;;;45.80;44.03;;;11.30;98.60;;;;;;5050920;28;20560;-80
2022/12/28 13:59:40;;;;;;;41.85;40.25;;;11.30;98.60;;;;;;5052125;28;20029;-80
2022/12/28 14:02:06;;;;;;;34.20;32.90;;;11.20;98.50;;;;;;5034820;28;20021;-80
2022/12/28 14:04:32;;;;;;;33.85;32.55;;;11.20;98.50;;;;;;5052185;28;20037;-80
2022/12/28 14:06:58;;;;;;;32.45;31.15;;;11.20;98.60;;;;;;5034471;28;20116;-73
2022/12/28 14:09:24;;;;;;;33.30;32.00;;;11.20;98.60;;;;;;5052370;28;20108;-80
2022/12/28 14:11:50;;;;;;;34.33;33.03;;;11.20;98.60;;;;;;5034742;28;20029;-79
2022/12/28 14:14:17;;;;;;;36.85;35.45;;;11.20;98.50;;;;;;5050973;28;20048;-78
2022/12/28 14:16:43;;;;;;;39.22;37.72;;;11.30;98.50;;;;;;5050498;28;20053;-79
2022/12/28 14:19:09;;;;;;;;;;;11.20;98.50;;;;;;5017551;28;20036;-79
2022/12/28 14:21:39;;;;;;;41.55;39.95;;;11.20;98.50;;;;;;5050446;28;20391;-78
2022/12/28 14:24:12;;;;;;;49.13;47.20;;;11.20;98.40;;;;;;5050542;28;20124;-78
2022/12/28 14:26:44;;;;;;;44.30;42.60;;;11.20;98.40;;;;;;5053494;28;20398;-79
2022/12/28 14:29:20;;;;;;;56.95;54.65;;;11.20;98.40;;;;;;5056855;28;20067;-78
2022/12/28 14:31:46;;;;;;;74.70;71.80;;;11.20;98.40;;;;;;5050606;28;20025;-79
2022/12/28 14:34:23;;;;;;;74.80;71.80;;;11.10;98.30;;;;;;5034221;28;20392;-79
2022/12/28 14:36:52;;;;;;;69.57;66.78;;;11.10;98.30;;;;;;5052195;28;20021;-79
2022/12/28 14:39:34;;;;;;;68.93;66.13;;;11.00;98.30;;;;;;5050238;28;20036;-78
2022/12/28 14:42:02;;;;;;;60.00;57.60;;;11.00;98.40;;;;;;5050336;28;20032;-69